sensor_id;sensor_type;location;lat;lon;timestamp;pressure;altitude;pressure_sealevel;temperature;humidity
64095;BME280;50353;51.420;5.682;2023-11-19T00:00:47;100739.19;;;12.53;100.00
64095;BME280;50353;51.420;5.682;2023-11-19T00:03:12;100747.88;;;12.55;100.00
64095;BME280;50353;51.420;5.682;2023-11-19T00:05:38;100747.03;;;12.55;100.00
64095;BME280;50353;51.420;5.682;2023-11-19T00:08:04;100751.47;;;12.54;100.00
64095;BME280;50353;51.420;5.682;2023-11-19T00:10:31;100741.09;;;12.64;100.00
64095;BME280;50353;51.420;5.682;2023-11-19T00:12:56;100731.75;;;12.58;100.00
64095;BME280;50353;51.420;5.682;2023-11-19T00:15:22;100737.50;;;12.52;100.00
64095;BME280;50353;51.420;5.682;2023-11-19T00:17:49;100731.75;;;12.58;100.00
64095;BME280;50353;51.420;5.682;2023-11-19T00:20:18;100730.69;;;12.61;100.00
64095;BME280;50353;51.420;5.682;2023-11-19T00:22:44;100721.66;;;12.63;100.00
64095;BME280;50353;51.420;5.682;2023-11-19T00:25:11;100714.47;;;12.52;100.00
64095;BME280;50353;51.420;5.682;2023-11-19T00:27:36;100724.44;;;12.62;100.00
64095;BME280;50353;51.420;5.682;2023-11-19T00:30:05;100711.41;;;12.59;100.00
64095;BME280;50353;51.420;5.682;2023-11-19T00:32:32;100716.47;;;12.62;100.00
64095;BME280;50353;51.420;5.682;2023-11-19T00:34:57;100712.00;;;12.62;100.00
64095;BME280;50353;51.420;5.682;2023-11-19T00:37:23;100689.31;;;12.58;100.00
64095;BME280;50353;51.420;5.682;2023-11-19T00:39:48;100676.69;;;12.62;100.00
64095;BME280;50353;51.420;5.682;2023-11-19T00:42:13;100678.16;;;12.66;100.00
64095;BME280;50353;51.420;5.682;2023-11-19T00:44:39;100674.13;;;12.73;100.00
64095;BME280;50353;51.420;5.682;2023-11-19T00:47:04;100669.50;;;12.64;100.00
64095;BME280;50353;51.420;5.682;2023-11-19T00:49:30;100684.84;;;12.72;100.00
64095;BME280;50353;51.420;5.682;2023-11-19T00:51:57;100674.34;;;12.70;100.00
64095;BME280;50353;51.420;5.682;2023-11-19T00:54:24;100678.69;;;12.71;100.00
64095;BME280;50353;51.420;5.682;2023-11-19T00:56:51;100674.63;;;12.78;100.00
64095;BME280;50353;51.420;5.682;2023-11-19T00:59:17;100670.50;;;12.74;100.00
64095;BME280;50353;51.420;5.682;2023-11-19T01:01:43;100668.16;;;12.82;100.00
64095;BME280;50353;51.420;5.682;2023-11-19T01:04:08;100664.97;;;12.77;100.00
64095;BME280;50353;51.420;5.682;2023-11-19T01:06:33;100675.28;;;12.69;100.00
64095;BME280;50353;51.420;5.682;2023-11-19T01:08:59;100678.69;;;12.71;100.00
64095;BME280;50353;51.420;5.682;2023-11-19T01:11:25;100671.25;;;12.76;100.00
64095;BME280;50353;51.420;5.682;2023-11-19T01:13:51;100664.25;;;12.75;100.00
64095;BME280;50353;51.420;5.682;2023-11-19T01:16:17;100663.06;;;12.79;100.00
64095;BME280;50353;51.420;5.682;2023-11-19T01:18:44;100671.25;;;12.76;100.00
64095;BME280;50353;51.420;5.682;2023-11-19T01:21:09;100672.72;;;12.80;100.00
64095;BME280;50353;51.420;5.682;2023-11-19T01:23:35;100674.09;;;12.86;100.00
64095;BME280;50353;51.420;5.682;2023-11-19T01:26:00;100682.72;;;12.77;100.00
64095;BME280;50353;51.420;5.682;2023-11-19T01:28:26;100674.63;;;12.78;100.00
64095;BME280;50353;51.420;5.682;2023-11-19T01:30:51;100666.69;;;12.78;100.00
64095;BME280;50353;51.420;5.682;2023-11-19T01:33:17;100660.19;;;12.82;100.00
64095;BME280;50353;51.420;5.682;2023-11-19T01:35:42;100658.72;;;12.78;100.00
64095;BME280;50353;51.420;5.682;2023-11-19T01:38:07;100641.50;;;12.84;100.00
64095;BME280;50353;51.420;5.682;2023-11-19T01:40:36;100646.63;;;12.74;100.00
64095;BME280;50353;51.420;5.682;2023-11-19T01:43:02;100638.16;;;12.69;100.00
64095;BME280;50353;51.420;5.682;2023-11-19T01:45:29;100634.13;;;12.76;100.00
64095;BME280;50353;51.420;5.682;2023-11-19T01:47:59;100621.66;;;12.65;100.00
64095;BME280;50353;51.420;5.682;2023-11-19T01:50:26;100633.50;;;12.73;100.00
64095;BME280;50353;51.420;5.682;2023-11-19T01:52:55;100634.78;;;12.67;100.00
64095;BME280;50353;51.420;5.682;2023-11-19T01:55:25;100630.22;;;12.69;100.00
64095;BME280;50353;51.420;5.682;2023-11-19T01:57:53;100634.31;;;12.73;100.00
64095;BME280;50353;51.420;5.682;2023-11-19T02:00:19;100629.03;;;12.73;100.00
64095;BME280;50353;51.420;5.682;2023-11-19T02:02:46;100639.75;;;12.72;100.00
64095;BME280;50353;51.420;5.682;2023-11-19T02:05:12;100640.63;;;12.72;100.00
64095;BME280;50353;51.420;5.682;2023-11-19T02:07:38;100640.38;;;12.75;100.00
64095;BME280;50353;51.420;5.682;2023-11-19T02:10:04;100652.06;;;12.73;100.00
64095;BME280;50353;51.420;5.682;2023-11-19T02:12:31;100653.00;;;12.72;100.00
64095;BME280;50353;51.420;5.682;2023-11-19T02:14:59;100652.59;;;12.78;100.00
64095;BME280;50353;51.420;5.682;2023-11-19T02:17:28;100658.66;;;12.67;100.00
64095;BME280;50353;51.420;5.682;2023-11-19T02:19:53;100658.88;;;12.64;100.00
64095;BME280;50353;51.420;5.682;2023-11-19T02:22:19;100657.41;;;12.60;100.00
64095;BME280;50353;51.420;5.682;2023-11-19T02:24:46;100650.53;;;12.57;100.00
64095;BME280;50353;51.420;5.682;2023-11-19T02:27:21;100662.19;;;12.55;100.00
64095;BME280;50353;51.420;5.682;2023-11-19T02:29:50;100642.28;;;12.49;100.00
64095;BME280;50353;51.420;5.682;2023-11-19T02:32:15;100640.75;;;12.58;100.00
64095;BME280;50353;51.420;5.682;2023-11-19T02:34:40;100632.06;;;12.56;100.00
64095;BME280;50353;51.420;5.682;2023-11-19T02:37:06;100623.78;;;12.47;100.00
64095;BME280;50353;51.420;5.682;2023-11-19T02:39:31;100624.03;;;12.44;100.00
64095;BME280;50353;51.420;5.682;2023-11-19T02:41:56;100620.84;;;12.39;100.00
64095;BME280;50353;51.420;5.682;2023-11-19T02:44:22;100621.19;;;12.34;100.00
64095;BME280;50353;51.420;5.682;2023-11-19T02:46:47;100617.69;;;12.34;100.00
64095;BME280;50353;51.420;5.682;2023-11-19T02:49:14;100599.34;;;12.31;100.00
64095;BME280;50353;51.420;5.682;2023-11-19T02:51:40;100594.16;;;12.29;100.00
64095;BME280;50353;51.420;5.682;2023-11-19T02:54:05;100589.91;;;12.27;100.00
64095;BME280;50353;51.420;5.682;2023-11-19T02:56:30;100602.53;;;12.36;100.00
64095;BME280;50353;51.420;5.682;2023-11-19T02:59:00;100592.91;;;12.22;100.00
64095;BME280;50353;51.420;5.682;2023-11-19T03:01:28;100597.97;;;12.25;100.00
64095;BME280;50353;51.420;5.682;2023-11-19T03:04:00;100597.47;;;12.20;100.00
64095;BME280;50353;51.420;5.682;2023-11-19T03:06:26;100603.16;;;12.27;100.00
64095;BME280;50353;51.420;5.682;2023-11-19T03:08:52;100590.91;;;12.13;100.00
64095;BME280;50353;51.420;5.682;2023-11-19T03:11:17;100581.19;;;12.13;100.00
64095;BME280;50353;51.420;5.682;2023-11-19T03:13:43;100588.34;;;12.24;100.00
64095;BME280;50353;51.420;5.682;2023-11-19T03:16:08;100600.38;;;12.04;100.00
64095;BME280;50353;51.420;5.682;2023-11-19T03:18:34;100591.03;;;12.11;100.00
64095;BME280;50353;51.420;5.682;2023-11-19T03:20:59;100585.94;;;12.08;100.00
64095;BME280;50353;51.420;5.682;2023-11-19T03:23:25;100601.09;;;12.06;100.00
64095;BME280;50353;51.420;5.682;2023-11-19T03:25:52;100586.13;;;12.05;100.00
64095;BME280;50353;51.420;5.682;2023-11-19T03:28:18;100598.78;;;12.02;100.00
64095;BME280;50353;51.420;5.682;2023-11-19T03:30:43;100606.38;;;12.06;100.00
64095;BME280;50353;51.420;5.682;2023-11-19T03:33:08;100605.03;;;12.00;100.00
64095;BME280;50353;51.420;5.682;2023-11-19T03:35:34;100603.31;;;11.99;100.00
64095;BME280;50353;51.420;5.682;2023-11-19T03:37:59;100606.50;;;12.05;100.00
64095;BME280;50353;51.420;5.682;2023-11-19T03:40:24;100603.75;;;12.06;100.00
64095;BME280;50353;51.420;5.682;2023-11-19T03:42:50;100608.44;;;12.03;100.00
64095;BME280;50353;51.420;5.682;2023-11-19T03:45:16;100608.72;;;12.11;100.00
64095;BME280;50353;51.420;5.682;2023-11-19T03:47:41;100597.28;;;12.10;100.00
64095;BME280;50353;51.420;5.682;2023-11-19T03:50:07;100602.72;;;11.96;100.00
64095;BME280;50353;51.420;5.682;2023-11-19T03:52:33;100602.88;;;11.93;100.00
64095;BME280;50353;51.420;5.682;2023-11-19T03:54:59;100592.63;;;12.01;100.00
64095;BME280;50353;51.420;5.682;2023-11-19T03:57:24;100597.72;;;12.04;100.00
64095;BME280;50353;51.420;5.682;2023-11-19T03:59:49;100612.31;;;11.97;100.00
64095;BME280;50353;51.420;5.682;2023-11-19T04:02:15;100611.56;;;12.08;100.00
64095;BME280;50353;51.420;5.682;2023-11-19T04:04:41;100619.63;;;12.06;100.00
64095;BME280;50353;51.420;5.682;2023-11-19T04:07:06;100617.00;;;12.06;100.00
64095;BME280;50353;51.420;5.682;2023-11-19T04:09:32;100619.44;;;11.96;100.00
64095;BME280;50353;51.420;5.682;2023-11-19T04:12:02;100615.94;;;11.96;100.00
64095;BME280;50353;51.420;5.682;2023-11-19T04:14:28;100618.16;;;12.02;100.00
64095;BME280;50353;51.420;5.682;2023-11-19T04:16:53;100604.56;;;11.94;100.00
64095;BME280;50353;51.420;5.682;2023-11-19T04:19:19;100603.97;;;11.90;100.00
64095;BME280;50353;51.420;5.682;2023-11-19T04:21:45;100603.22;;;12.01;100.00
64095;BME280;50353;51.420;5.682;2023-11-19T04:24:10;100609.25;;;12.03;100.00
64095;BME280;50353;51.420;5.682;2023-11-19T04:26:43;100599.84;;;11.99;100.00
64095;BME280;50353;51.420;5.682;2023-11-19T04:29:11;100610.75;;;12.07;100.00
64095;BME280;50353;51.420;5.682;2023-11-19T04:31:37;100621.00;;;12.12;100.00
64095;BME280;50353;51.420;5.682;2023-11-19T04:34:03;100618.16;;;12.02;100.00
64095;BME280;50353;51.420;5.682;2023-11-19T04:36:28;100621.03;;;11.99;100.00
64095;BME280;50353;51.420;5.682;2023-11-19T04:38:54;100621.75;;;12.01;100.00
64095;BME280;50353;51.420;5.682;2023-11-19T04:41:20;100635.75;;;11.90;100.00
64095;BME280;50353;51.420;5.682;2023-11-19T04:43:45;100624.00;;;11.94;100.00
64095;BME280;50353;51.420;5.682;2023-11-19T04:46:10;100613.09;;;11.99;100.00
64095;BME280;50353;51.420;5.682;2023-11-19T04:48:36;100621.03;;;11.99;100.00
64095;BME280;50353;51.420;5.682;2023-11-19T04:51:04;100616.56;;;11.99;100.00
64095;BME280;50353;51.420;5.682;2023-11-19T04:53:30;100616.22;;;11.91;100.00
64095;BME280;50353;51.420;5.682;2023-11-19T04:55:55;100621.13;;;11.97;100.00
64095;BME280;50353;51.420;5.682;2023-11-19T04:58:20;100611.59;;;11.95;100.00
64095;BME280;50353;51.420;5.682;2023-11-19T05:00:46;100624.28;;;11.90;100.00
64095;BME280;50353;51.420;5.682;2023-11-19T05:03:11;100622.19;;;12.08;100.00
64095;BME280;50353;51.420;5.682;2023-11-19T05:05:36;100613.56;;;11.91;100.00
64095;BME280;50353;51.420;5.682;2023-11-19T05:08:01;100625.97;;;11.78;100.00
64095;BME280;50353;51.420;5.682;2023-11-19T05:10:27;100635.84;;;11.76;100.00
64095;BME280;50353;51.420;5.682;2023-11-19T05:12:52;100619.19;;;11.87;100.00
64095;BME280;50353;51.420;5.682;2023-11-19T05:15:18;100626.38;;;11.84;100.00
64095;BME280;50353;51.420;5.682;2023-11-19T05:17:43;100635.72;;;11.77;100.00
64095;BME280;50353;51.420;5.682;2023-11-19T05:20:09;100629.38;;;11.80;100.00
64095;BME280;50353;51.420;5.682;2023-11-19T05:22:39;100624.16;;;11.91;100.00
64095;BME280;50353;51.420;5.682;2023-11-19T05:25:05;100629.03;;;11.84;100.00
64095;BME280;50353;51.420;5.682;2023-11-19T05:27:31;100632.44;;;11.87;100.00
64095;BME280;50353;51.420;5.682;2023-11-19T05:29:56;100628.75;;;11.89;100.00
64095;BME280;50353;51.420;5.682;2023-11-19T05:32:21;100633.63;;;11.82;100.00
64095;BME280;50353;51.420;5.682;2023-11-19T05:34:46;100627.88;;;11.76;100.00
64095;BME280;50353;51.420;5.682;2023-11-19T05:37:12;100635.19;;;11.72;100.00
64095;BME280;50353;51.420;5.682;2023-11-19T05:39:37;100636.16;;;11.71;100.00
64095;BME280;50353;51.420;5.682;2023-11-19T05:42:03;100642.94;;;11.75;100.00
64095;BME280;50353;51.420;5.682;2023-11-19T05:44:28;100650.44;;;11.69;100.00
64095;BME280;50353;51.420;5.682;2023-11-19T05:46:54;100645.66;;;11.74;100.00
64095;BME280;50353;51.420;5.682;2023-11-19T05:49:19;100646.66;;;11.73;100.00
64095;BME280;50353;51.420;5.682;2023-11-19T05:51:44;100644.28;;;11.68;100.00
64095;BME280;50353;51.420;5.682;2023-11-19T05:54:11;100632.97;;;11.66;100.00
64095;BME280;50353;51.420;5.682;2023-11-19T05:56:36;100633.84;;;11.79;100.00
64095;BME280;50353;51.420;5.682;2023-11-19T05:59:02;100638.03;;;11.69;100.00
64095;BME280;50353;51.420;5.682;2023-11-19T06:01:31;100637.63;;;11.62;100.00
64095;BME280;50353;51.420;5.682;2023-11-19T06:03:56;100642.47;;;11.56;100.00
64095;BME280;50353;51.420;5.682;2023-11-19T06:06:21;100649.25;;;11.60;100.00
64095;BME280;50353;51.420;5.682;2023-11-19T06:08:47;100635.25;;;11.45;100.00
64095;BME280;50353;51.420;5.682;2023-11-19T06:11:12;100631.00;;;11.42;100.00
64095;BME280;50353;51.420;5.682;2023-11-19T06:13:44;100635.47;;;11.55;100.00
64095;BME280;50353;51.420;5.682;2023-11-19T06:16:10;100635.47;;;11.55;100.00
64095;BME280;50353;51.420;5.682;2023-11-19T06:18:36;100644.91;;;11.46;100.00
64095;BME280;50353;51.420;5.682;2023-11-19T06:21:01;100630.69;;;11.34;100.00
64095;BME280;50353;51.420;5.682;2023-11-19T06:23:27;100636.31;;;11.42;100.00
64095;BME280;50353;51.420;5.682;2023-11-19T06:25:52;100643.81;;;11.36;100.00
64095;BME280;50353;51.420;5.682;2023-11-19T06:28:17;100645.06;;;11.30;100.00
64095;BME280;50353;51.420;5.682;2023-11-19T06:30:43;100648.03;;;11.25;100.00
64095;BME280;50353;51.420;5.682;2023-11-19T06:33:09;100636.28;;;11.29;100.00
64095;BME280;50353;51.420;5.682;2023-11-19T06:35:34;100641.91;;;11.25;100.00
64095;BME280;50353;51.420;5.682;2023-11-19T06:38:02;100642.59;;;11.14;100.00
64095;BME280;50353;51.420;5.682;2023-11-19T06:40:28;100650.53;;;11.14;100.00
64095;BME280;50353;51.420;5.682;2023-11-19T06:42:54;100657.59;;;11.01;100.00
64095;BME280;50353;51.420;5.682;2023-11-19T06:45:19;100639.19;;;11.12;100.00
64095;BME280;50353;51.420;5.682;2023-11-19T06:47:45;100636.44;;;11.13;100.00
64095;BME280;50353;51.420;5.682;2023-11-19T06:50:10;100635.09;;;11.21;100.00
64095;BME280;50353;51.420;5.682;2023-11-19T06:52:37;100647.69;;;11.17;100.00
64095;BME280;50353;51.420;5.682;2023-11-19T06:55:03;100650.78;;;11.24;100.00
64095;BME280;50353;51.420;5.682;2023-11-19T06:57:29;100643.13;;;11.19;100.00
64095;BME280;50353;51.420;5.682;2023-11-19T06:59:56;100645.50;;;11.24;100.00
64095;BME280;50353;51.420;5.682;2023-11-19T07:02:22;100649.41;;;11.18;100.00
64095;BME280;50353;51.420;5.682;2023-11-19T07:04:47;100653.09;;;11.28;100.00
64095;BME280;50353;51.420;5.682;2023-11-19T07:07:13;100656.56;;;11.16;100.00
64095;BME280;50353;51.420;5.682;2023-11-19T07:09:40;100658.03;;;11.07;100.00
64095;BME280;50353;51.420;5.682;2023-11-19T07:12:05;100657.81;;;11.10;100.00
64095;BME280;50353;51.420;5.682;2023-11-19T07:14:31;100662.16;;;11.11;100.00
64095;BME280;50353;51.420;5.682;2023-11-19T07:16:56;100667.94;;;11.04;100.00
64095;BME280;50353;51.420;5.682;2023-11-19T07:19:22;100671.72;;;11.14;100.00
64095;BME280;50353;51.420;5.682;2023-11-19T07:21:47;100674.53;;;11.11;100.00
64095;BME280;50353;51.420;5.682;2023-11-19T07:24:12;100674.84;;;11.06;100.00
64095;BME280;50353;51.420;5.682;2023-11-19T07:26:46;100681.63;;;11.10;100.00
64095;BME280;50353;51.420;5.682;2023-11-19T07:29:13;100675.94;;;11.16;100.00
64095;BME280;50353;51.420;5.682;2023-11-19T07:31:38;100692.31;;;11.09;100.00
64095;BME280;50353;51.420;5.682;2023-11-19T07:34:03;100695.22;;;11.19;100.00
64095;BME280;50353;51.420;5.682;2023-11-19T07:36:30;100688.78;;;11.36;100.00
64095;BME280;50353;51.420;5.682;2023-11-19T07:38:56;100693.28;;;11.21;100.00
64095;BME280;50353;51.420;5.682;2023-11-19T07:41:23;100705.69;;;11.20;100.00
64095;BME280;50353;51.420;5.682;2023-11-19T07:43:48;100699.34;;;11.23;100.00
64095;BME280;50353;51.420;5.682;2023-11-19T07:46:14;100711.06;;;11.46;100.00
64095;BME280;50353;51.420;5.682;2023-11-19T07:48:40;100720.88;;;11.31;100.00
64095;BME280;50353;51.420;5.682;2023-11-19T07:51:06;100711.66;;;11.37;100.00
64095;BME280;50353;51.420;5.682;2023-11-19T07:53:31;100698.78;;;11.18;100.00
64095;BME280;50353;51.420;5.682;2023-11-19T07:55:58;100702.56;;;11.28;100.00
64095;BME280;50353;51.420;5.682;2023-11-19T07:58:25;100703.84;;;11.35;100.00
64095;BME280;50353;51.420;5.682;2023-11-19T08:00:50;100684.72;;;11.44;100.00
64095;BME280;50353;51.420;5.682;2023-11-19T08:03:15;100683.56;;;11.61;100.00
64095;BME280;50353;51.420;5.682;2023-11-19T08:05:41;100699.00;;;11.55;100.00
64095;BME280;50353;51.420;5.682;2023-11-19T08:08:06;100698.94;;;11.56;100.00
64095;BME280;50353;51.420;5.682;2023-11-19T08:10:32;100699.06;;;11.67;100.00
64095;BME280;50353;51.420;5.682;2023-11-19T08:12:58;100707.53;;;11.73;100.00
64095;BME280;50353;51.420;5.682;2023-11-19T08:15:23;100710.81;;;11.76;100.00
64095;BME280;50353;51.420;5.682;2023-11-19T08:17:49;100709.31;;;11.72;100.00
64095;BME280;50353;51.420;5.682;2023-11-19T08:20:14;100710.03;;;12.02;100.00
64095;BME280;50353;51.420;5.682;2023-11-19T08:22:40;100712.44;;;11.92;100.00
64095;BME280;50353;51.420;5.682;2023-11-19T08:25:05;100714.91;;;11.95;100.00
64095;BME280;50353;51.420;5.682;2023-11-19T08:27:31;100711.91;;;11.87;100.00
64095;BME280;50353;51.420;5.682;2023-11-19T08:29:57;100704.00;;;12.12;100.00
64095;BME280;50353;51.420;5.682;2023-11-19T08:32:26;100705.22;;;11.94;100.00
64095;BME280;50353;51.420;5.682;2023-11-19T08:34:51;100707.88;;;11.81;100.00
64095;BME280;50353;51.420;5.682;2023-11-19T08:37:17;100704.31;;;11.95;100.00
64095;BME280;50353;51.420;5.682;2023-11-19T08:39:48;100707.88;;;11.94;100.00
64095;BME280;50353;51.420;5.682;2023-11-19T08:42:14;100713.69;;;11.73;100.00
64095;BME280;50353;51.420;5.682;2023-11-19T08:44:39;100703.75;;;11.90;100.00
64095;BME280;50353;51.420;5.682;2023-11-19T08:47:08;100708.56;;;11.97;100.00
64095;BME280;50353;51.420;5.682;2023-11-19T08:49:34;100704.38;;;11.93;100.00
64095;BME280;50353;51.420;5.682;2023-11-19T08:51:59;100704.09;;;11.98;100.00
64095;BME280;50353;51.420;5.682;2023-11-19T08:54:25;100709.94;;;12.03;100.00
64095;BME280;50353;51.420;5.682;2023-11-19T08:56:50;100718.84;;;12.15;100.00
64095;BME280;50353;51.420;5.682;2023-11-19T08:59:15;100722.31;;;12.28;100.00
64095;BME280;50353;51.420;5.682;2023-11-19T09:01:41;100706.09;;;12.20;100.00
64095;BME280;50353;51.420;5.682;2023-11-19T09:04:06;100709.50;;;12.35;100.00
64095;BME280;50353;51.420;5.682;2023-11-19T09:06:32;100702.09;;;12.27;100.00
64095;BME280;50353;51.420;5.682;2023-11-19T09:08:57;100708.03;;;12.44;100.00
64095;BME280;50353;51.420;5.682;2023-11-19T09:11:26;100691.00;;;12.72;100.00
64095;BME280;50353;51.420;5.682;2023-11-19T09:13:52;100714.03;;;12.46;100.00
64095;BME280;50353;51.420;5.682;2023-11-19T09:16:17;100713.47;;;12.66;100.00
64095;BME280;50353;51.420;5.682;2023-11-19T09:18:43;100709.41;;;12.87;100.00
64095;BME280;50353;51.420;5.682;2023-11-19T09:21:10;100697.69;;;12.65;100.00
64095;BME280;50353;51.420;5.682;2023-11-19T09:23:36;100711.94;;;12.64;100.00
64095;BME280;50353;51.420;5.682;2023-11-19T09:26:05;100707.03;;;12.58;100.00
64095;BME280;50353;51.420;5.682;2023-11-19T09:28:30;100718.81;;;12.54;100.00
64095;BME280;50353;51.420;5.682;2023-11-19T09:30:56;100715.03;;;12.45;100.00
64095;BME280;50353;51.420;5.682;2023-11-19T09:33:21;100719.19;;;12.73;100.00
64095;BME280;50353;51.420;5.682;2023-11-19T09:35:46;100716.06;;;13.05;100.00
64095;BME280;50353;51.420;5.682;2023-11-19T09:38:14;100708.00;;;12.94;100.00
64095;BME280;50353;51.420;5.682;2023-11-19T09:40:40;100703.50;;;12.83;100.00
64095;BME280;50353;51.420;5.682;2023-11-19T09:43:05;100715.97;;;12.94;100.00
64095;BME280;50353;51.420;5.682;2023-11-19T09:45:47;100710.06;;;12.77;100.00
64095;BME280;50353;51.420;5.682;2023-11-19T09:48:16;100714.78;;;12.61;100.00
64095;BME280;50353;51.420;5.682;2023-11-19T09:50:42;100714.91;;;12.46;100.00
64095;BME280;50353;51.420;5.682;2023-11-19T09:53:07;100714.78;;;12.61;100.00
64095;BME280;50353;51.420;5.682;2023-11-19T09:55:32;100707.56;;;12.63;100.00
64095;BME280;50353;51.420;5.682;2023-11-19T09:57:58;100708.19;;;12.66;100.00
64095;BME280;50353;51.420;5.682;2023-11-19T10:00:26;100706.44;;;12.91;100.00
64095;BME280;50353;51.420;5.682;2023-11-19T10:02:53;100711.47;;;12.70;100.00
64095;BME280;50353;51.420;5.682;2023-11-19T10:05:19;100693.13;;;12.67;100.00
64095;BME280;50353;51.420;5.682;2023-11-19T10:07:45;100714.78;;;12.61;100.00
64095;BME280;50353;51.420;5.682;2023-11-19T10:10:12;100697.22;;;12.84;100.00
64095;BME280;50353;51.420;5.682;2023-11-19T10:12:40;100703.06;;;13.13;100.00
64095;BME280;50353;51.420;5.682;2023-11-19T10:15:06;100702.41;;;13.23;100.00
64095;BME280;50353;51.420;5.682;2023-11-19T10:17:36;100700.84;;;13.31;100.00
64095;BME280;50353;51.420;5.682;2023-11-19T10:20:01;100704.25;;;13.33;100.00
64095;BME280;50353;51.420;5.682;2023-11-19T10:22:28;100699.34;;;13.40;100.00
64095;BME280;50353;51.420;5.682;2023-11-19T10:24:53;100711.16;;;13.36;100.00
64095;BME280;50353;51.420;5.682;2023-11-19T10:27:19;100712.84;;;13.37;100.00
64095;BME280;50353;51.420;5.682;2023-11-19T10:29:45;100717.41;;;13.35;100.00
64095;BME280;50353;51.420;5.682;2023-11-19T10:32:12;100714.56;;;13.38;100.00
64095;BME280;50353;51.420;5.682;2023-11-19T10:34:37;100709.13;;;13.64;100.00
64095;BME280;50353;51.420;5.682;2023-11-19T10:37:04;100709.69;;;13.56;100.00
64095;BME280;50353;51.420;5.682;2023-11-19T10:39:53;100710.94;;;13.39;100.00
64095;BME280;50353;51.420;5.682;2023-11-19T10:42:19;100716.47;;;13.36;100.00
64095;BME280;50353;51.420;5.682;2023-11-19T10:44:45;100713.03;;;13.47;100.00
64095;BME280;50353;51.420;5.682;2023-11-19T10:47:10;100720.66;;;13.51;100.00
64095;BME280;50353;51.420;5.682;2023-11-19T10:49:37;100712.03;;;13.72;100.00
64095;BME280;50353;51.420;5.682;2023-11-19T10:52:05;100702.88;;;13.41;100.00
64095;BME280;50353;51.420;5.682;2023-11-19T10:54:32;100712.19;;;13.46;100.00
64095;BME280;50353;51.420;5.682;2023-11-19T10:56:59;100694.69;;;13.55;100.00
64095;BME280;50353;51.420;5.682;2023-11-19T10:59:29;100696.69;;;13.40;100.00
64095;BME280;50353;51.420;5.682;2023-11-19T11:01:56;100695.16;;;13.25;100.00
64095;BME280;50353;51.420;5.682;2023-11-19T11:04:25;100694.63;;;13.19;100.00
64095;BME280;50353;51.420;5.682;2023-11-19T11:06:58;100702.19;;;13.50;100.00
64095;BME280;50353;51.420;5.682;2023-11-19T11:09:26;100693.63;;;13.58;100.00
64095;BME280;50353;51.420;5.682;2023-11-19T11:11:52;100708.06;;;13.42;100.00
64095;BME280;50353;51.420;5.682;2023-11-19T11:14:19;100684.41;;;13.26;100.00
64095;BME280;50353;51.420;5.682;2023-11-19T11:16:46;100698.31;;;13.30;100.00
64095;BME280;50353;51.420;5.682;2023-11-19T11:19:12;100694.63;;;13.19;100.00
64095;BME280;50353;51.420;5.682;2023-11-19T11:21:40;100686.50;;;13.10;100.00
64095;BME280;50353;51.420;5.682;2023-11-19T11:29:56;100671.66;;;13.07;100.00
64095;BME280;50353;51.420;5.682;2023-11-19T11:32:37;100674.03;;;12.99;100.00
64095;BME280;50353;51.420;5.682;2023-11-19T11:38:03;100671.25;;;12.76;100.00
64095;BME280;50353;51.420;5.682;2023-11-19T11:40:29;100674.22;;;12.84;100.00
64095;BME280;50353;51.420;5.682;2023-11-19T11:42:54;100671.69;;;12.70;100.00
64095;BME280;50353;51.420;5.682;2023-11-19T11:45:35;100666.19;;;12.60;100.00
64095;BME280;50353;51.420;5.682;2023-11-19T11:48:09;100667.69;;;12.51;100.00
64095;BME280;50353;51.420;5.682;2023-11-19T11:50:53;100672.91;;;12.40;100.00
64095;BME280;50353;51.420;5.682;2023-11-19T11:53:20;100663.81;;;12.31;100.00
64095;BME280;50353;51.420;5.682;2023-11-19T11:58:13;100661.59;;;12.25;100.00
64095;BME280;50353;51.420;5.682;2023-11-19T12:00:42;100653.09;;;12.20;100.00
64095;BME280;50353;51.420;5.682;2023-11-19T12:03:08;100649.94;;;12.28;100.00
64095;BME280;50353;51.420;5.682;2023-11-19T12:05:44;100653.75;;;12.24;100.00
64095;BME280;50353;51.420;5.682;2023-11-19T12:08:11;100656.13;;;12.52;100.00
64095;BME280;50353;51.420;5.682;2023-11-19T12:10:55;100663.72;;;12.70;100.00
64095;BME280;50353;51.420;5.682;2023-11-19T12:13:26;100656.59;;;12.83;100.00
64095;BME280;50353;51.420;5.682;2023-11-19T12:18:30;100639.84;;;12.83;100.00
64095;BME280;50353;51.420;5.682;2023-11-19T12:20:56;100638.38;;;12.79;100.00
64095;BME280;50353;51.420;5.682;2023-11-19T12:23:22;100648.47;;;12.98;100.00
64095;BME280;50353;51.420;5.682;2023-11-19T12:25:48;100647.47;;;12.75;100.00
64095;BME280;50353;51.420;5.682;2023-11-19T12:28:14;100639.91;;;12.81;100.00
64095;BME280;50353;51.420;5.682;2023-11-19T12:30:42;100646.81;;;12.84;100.00
64095;BME280;50353;51.420;5.682;2023-11-19T12:33:11;100649.75;;;12.68;100.00
64095;BME280;50353;51.420;5.682;2023-11-19T12:35:44;100639.88;;;12.70;100.00
64095;BME280;50353;51.420;5.682;2023-11-19T12:38:24;100643.28;;;12.72;100.00
64095;BME280;50353;51.420;5.682;2023-11-19T12:41:09;100643.34;;;12.71;100.00
64095;BME280;50353;51.420;5.682;2023-11-19T12:43:38;100649.28;;;12.74;100.00
64095;BME280;50353;51.420;5.682;2023-11-19T12:46:24;100648.81;;;12.56;100.00
64095;BME280;50353;51.420;5.682;2023-11-19T12:48:50;100648.84;;;12.80;100.00
64095;BME280;50353;51.420;5.682;2023-11-19T12:51:16;100654.59;;;12.74;100.00